sensor_id;sensor_type;location;lat;lon;timestamp;temperature;humidity
52656;SHT85;35474;51.032;6.998;2023-09-19T00:00:35;17.09;79.48
52656;SHT85;35474;51.032;6.998;2023-09-19T00:03:02;17.09;79.32
52656;SHT85;35474;51.032;6.998;2023-09-19T00:05:33;17.06;79.07
52656;SHT85;35474;51.032;6.998;2023-09-19T00:08:01;17.09;78.62
52656;SHT85;35474;51.032;6.998;2023-09-19T00:10:31;17.00;79.14
52656;SHT85;35474;51.032;6.998;2023-09-19T00:13:02;16.96;79.10
52656;SHT85;35474;51.032;6.998;2023-09-19T00:15:37;16.98;79.02
52656;SHT85;35474;51.032;6.998;2023-09-19T00:18:08;16.92;79.64
52656;SHT85;35474;51.032;6.998;2023-09-19T00:20:36;16.83;80.14
52656;SHT85;35474;51.032;6.998;2023-09-19T00:23:03;16.85;80.12
52656;SHT85;35474;51.032;6.998;2023-09-19T00:25:31;16.85;80.23
52656;SHT85;35474;51.032;6.998;2023-09-19T00:28:01;16.72;80.22
52656;SHT85;35474;51.032;6.998;2023-09-19T00:30:28;16.80;80.21
52656;SHT85;35474;51.032;6.998;2023-09-19T00:32:55;16.75;80.44
52656;SHT85;35474;51.032;6.998;2023-09-19T00:35:22;16.76;79.81
52656;SHT85;35474;51.032;6.998;2023-09-19T00:37:52;16.80;79.96
52656;SHT85;35474;51.032;6.998;2023-09-19T00:40:19;16.73;80.35
52656;SHT85;35474;51.032;6.998;2023-09-19T00:42:48;16.75;79.82
52656;SHT85;35474;51.032;6.998;2023-09-19T00:45:17;16.76;79.35
52656;SHT85;35474;51.032;6.998;2023-09-19T00:47:45;16.69;79.73
52656;SHT85;35474;51.032;6.998;2023-09-19T00:50:17;16.73;79.81
52656;SHT85;35474;51.032;6.998;2023-09-19T00:52:46;16.76;79.83
52656;SHT85;35474;51.032;6.998;2023-09-19T00:55:16;16.75;79.45
52656;SHT85;35474;51.032;6.998;2023-09-19T00:57:46;16.79;79.64
52656;SHT85;35474;51.032;6.998;2023-09-19T01:00:13;16.73;79.73
52656;SHT85;35474;51.032;6.998;2023-09-19T01:02:42;16.69;80.13
52656;SHT85;35474;51.032;6.998;2023-09-19T01:05:10;16.75;80.03
52656;SHT85;35474;51.032;6.998;2023-09-19T01:07:38;16.90;79.19
52656;SHT85;35474;51.032;6.998;2023-09-19T01:10:08;16.85;78.99
52656;SHT85;35474;51.032;6.998;2023-09-19T01:15:28;16.82;79.14
52656;SHT85;35474;51.032;6.998;2023-09-19T01:20:57;16.89;78.90
52656;SHT85;35474;51.032;6.998;2023-09-19T01:26:30;16.83;78.94
52656;SHT85;35474;51.032;6.998;2023-09-19T01:31:59;16.82;79.11
52656;SHT85;35474;51.032;6.998;2023-09-19T01:37:13;16.79;79.42
52656;SHT85;35474;51.032;6.998;2023-09-19T01:39:41;16.75;79.51
52656;SHT85;35474;51.032;6.998;2023-09-19T01:42:19;16.67;79.62
52656;SHT85;35474;51.032;6.998;2023-09-19T01:45:02;16.67;79.78
52656;SHT85;35474;51.032;6.998;2023-09-19T01:48:04;16.68;79.44
52656;SHT85;35474;51.032;6.998;2023-09-19T01:50:49;16.69;79.42
52656;SHT85;35474;51.032;6.998;2023-09-19T01:53:36;16.65;79.67
52656;SHT85;35474;51.032;6.998;2023-09-19T01:56:05;16.55;79.74
52656;SHT85;35474;51.032;6.998;2023-09-19T02:01:01;16.62;78.98
52656;SHT85;35474;51.032;6.998;2023-09-19T02:03:29;16.67;78.94
52656;SHT85;35474;51.032;6.998;2023-09-19T02:05:57;16.72;77.39
52656;SHT85;35474;51.032;6.998;2023-09-19T02:08:24;16.71;76.77
52656;SHT85;35474;51.032;6.998;2023-09-19T02:10:52;16.65;77.48
52656;SHT85;35474;51.032;6.998;2023-09-19T02:13:19;16.62;77.55
52656;SHT85;35474;51.032;6.998;2023-09-19T02:15:48;16.55;77.02
52656;SHT85;35474;51.032;6.998;2023-09-19T02:18:15;16.51;77.22
52656;SHT85;35474;51.032;6.998;2023-09-19T02:20:42;16.54;76.34
52656;SHT85;35474;51.032;6.998;2023-09-19T02:23:09;16.55;76.22
52656;SHT85;35474;51.032;6.998;2023-09-19T02:25:36;16.49;76.64
52656;SHT85;35474;51.032;6.998;2023-09-19T02:28:04;16.49;76.45
52656;SHT85;35474;51.032;6.998;2023-09-19T02:30:32;16.44;76.25
52656;SHT85;35474;51.032;6.998;2023-09-19T02:32:59;16.45;75.84
52656;SHT85;35474;51.032;6.998;2023-09-19T02:35:29;16.45;75.39
52656;SHT85;35474;51.032;6.998;2023-09-19T02:38:02;16.45;75.34
52656;SHT85;35474;51.032;6.998;2023-09-19T02:40:33;16.44;75.88
52656;SHT85;35474;51.032;6.998;2023-09-19T02:43:02;16.41;75.59
52656;SHT85;35474;51.032;6.998;2023-09-19T02:45:29;16.37;76.15
52656;SHT85;35474;51.032;6.998;2023-09-19T02:47:56;16.35;75.72
52656;SHT85;35474;51.032;6.998;2023-09-19T02:50:23;16.32;75.79
52656;SHT85;35474;51.032;6.998;2023-09-19T02:52:50;16.32;75.90
52656;SHT85;35474;51.032;6.998;2023-09-19T02:55:18;16.25;75.88
52656;SHT85;35474;51.032;6.998;2023-09-19T02:57:47;16.30;75.95
52656;SHT85;35474;51.032;6.998;2023-09-19T03:00:18;16.21;76.13
52656;SHT85;35474;51.032;6.998;2023-09-19T03:02:49;16.22;76.50
52656;SHT85;35474;51.032;6.998;2023-09-19T03:05:20;16.11;76.83
52656;SHT85;35474;51.032;6.998;2023-09-19T03:07:49;16.10;76.59
52656;SHT85;35474;51.032;6.998;2023-09-19T03:10:20;16.09;75.92
52656;SHT85;35474;51.032;6.998;2023-09-19T03:12:47;16.04;76.10
52656;SHT85;35474;51.032;6.998;2023-09-19T03:15:14;16.01;75.48
52656;SHT85;35474;51.032;6.998;2023-09-19T03:17:45;16.00;75.72
52656;SHT85;35474;51.032;6.998;2023-09-19T03:20:14;16.03;75.39
52656;SHT85;35474;51.032;6.998;2023-09-19T03:22:44;16.04;75.68
52656;SHT85;35474;51.032;6.998;2023-09-19T03:25:11;16.03;76.33
52656;SHT85;35474;51.032;6.998;2023-09-19T03:27:38;15.97;76.24
52656;SHT85;35474;51.032;6.998;2023-09-19T03:30:05;15.91;76.79
52656;SHT85;35474;51.032;6.998;2023-09-19T03:32:35;15.94;76.88
52656;SHT85;35474;51.032;6.998;2023-09-19T03:35:02;15.89;77.31
52656;SHT85;35474;51.032;6.998;2023-09-19T03:37:31;15.85;77.18
52656;SHT85;35474;51.032;6.998;2023-09-19T03:39:59;15.79;77.74
52656;SHT85;35474;51.032;6.998;2023-09-19T03:42:26;15.77;77.65
52656;SHT85;35474;51.032;6.998;2023-09-19T03:44:52;15.86;77.65
52656;SHT85;35474;51.032;6.998;2023-09-19T03:47:21;15.79;77.59
52656;SHT85;35474;51.032;6.998;2023-09-19T03:49:48;15.89;76.75
52656;SHT85;35474;51.032;6.998;2023-09-19T03:52:14;15.79;77.01
52656;SHT85;35474;51.032;6.998;2023-09-19T03:54:44;15.82;77.28
52656;SHT85;35474;51.032;6.998;2023-09-19T03:57:11;15.85;77.38
52656;SHT85;35474;51.032;6.998;2023-09-19T03:59:42;15.82;77.50
52656;SHT85;35474;51.032;6.998;2023-09-19T04:02:11;15.79;77.58
52656;SHT85;35474;51.032;6.998;2023-09-19T04:04:48;15.80;77.68
52656;SHT85;35474;51.032;6.998;2023-09-19T04:07:16;15.77;77.87
52656;SHT85;35474;51.032;6.998;2023-09-19T04:09:43;15.85;77.80
52656;SHT85;35474;51.032;6.998;2023-09-19T04:12:10;15.76;78.04
52656;SHT85;35474;51.032;6.998;2023-09-19T04:14:37;15.79;78.05
52656;SHT85;35474;51.032;6.998;2023-09-19T04:17:04;15.77;77.93
52656;SHT85;35474;51.032;6.998;2023-09-19T04:19:36;15.82;77.91
52656;SHT85;35474;51.032;6.998;2023-09-19T04:22:03;15.77;78.03
52656;SHT85;35474;51.032;6.998;2023-09-19T04:24:30;15.80;77.97
52656;SHT85;35474;51.032;6.998;2023-09-19T04:26:58;15.80;77.60
52656;SHT85;35474;51.032;6.998;2023-09-19T04:29:25;15.73;78.26
52656;SHT85;35474;51.032;6.998;2023-09-19T04:31:56;15.72;78.40
52656;SHT85;35474;51.032;6.998;2023-09-19T04:34:26;15.69;78.30
52656;SHT85;35474;51.032;6.998;2023-09-19T04:36:53;15.73;77.74
52656;SHT85;35474;51.032;6.998;2023-09-19T04:39:22;15.69;77.87
52656;SHT85;35474;51.032;6.998;2023-09-19T04:41:52;15.74;77.07
52656;SHT85;35474;51.032;6.998;2023-09-19T04:44:19;15.65;77.63
52656;SHT85;35474;51.032;6.998;2023-09-19T04:46:45;15.72;77.38
52656;SHT85;35474;51.032;6.998;2023-09-19T04:49:13;15.73;76.85
52656;SHT85;35474;51.032;6.998;2023-09-19T04:51:40;15.70;76.61
52656;SHT85;35474;51.032;6.998;2023-09-19T04:54:06;15.73;76.40
52656;SHT85;35474;51.032;6.998;2023-09-19T04:56:33;15.76;76.15
52656;SHT85;35474;51.032;6.998;2023-09-19T04:59:00;15.69;76.39
52656;SHT85;35474;51.032;6.998;2023-09-19T05:01:27;15.65;76.76
52656;SHT85;35474;51.032;6.998;2023-09-19T05:03:53;15.69;76.65
52656;SHT85;35474;51.032;6.998;2023-09-19T05:06:20;15.67;76.62
52656;SHT85;35474;51.032;6.998;2023-09-19T05:08:47;15.67;76.81
52656;SHT85;35474;51.032;6.998;2023-09-19T05:11:18;15.55;77.07
52656;SHT85;35474;51.032;6.998;2023-09-19T05:13:46;15.58;76.82
52656;SHT85;35474;51.032;6.998;2023-09-19T05:16:12;15.51;77.18
52656;SHT85;35474;51.032;6.998;2023-09-19T05:18:39;15.46;77.22
52656;SHT85;35474;51.032;6.998;2023-09-19T05:21:07;15.46;77.15
52656;SHT85;35474;51.032;6.998;2023-09-19T05:23:34;15.48;77.46
52656;SHT85;35474;51.032;6.998;2023-09-19T05:26:00;15.53;76.60
52656;SHT85;35474;51.032;6.998;2023-09-19T05:28:28;15.52;76.76
52656;SHT85;35474;51.032;6.998;2023-09-19T05:30:55;15.62;76.22
52656;SHT85;35474;51.032;6.998;2023-09-19T05:33:22;15.63;76.22
52656;SHT85;35474;51.032;6.998;2023-09-19T05:35:49;15.67;76.10
52656;SHT85;35474;51.032;6.998;2023-09-19T05:38:16;15.66;76.07
52656;SHT85;35474;51.032;6.998;2023-09-19T05:40:45;15.87;75.56
52656;SHT85;35474;51.032;6.998;2023-09-19T05:43:13;15.85;75.55
52656;SHT85;35474;51.032;6.998;2023-09-19T05:45:43;15.73;75.18
52656;SHT85;35474;51.032;6.998;2023-09-19T05:48:10;15.58;75.40
52656;SHT85;35474;51.032;6.998;2023-09-19T05:50:39;15.69;75.15
52656;SHT85;35474;51.032;6.998;2023-09-19T05:53:06;15.55;75.10
52656;SHT85;35474;51.032;6.998;2023-09-19T05:55:34;15.61;75.08
52656;SHT85;35474;51.032;6.998;2023-09-19T05:58:02;15.63;75.03
52656;SHT85;35474;51.032;6.998;2023-09-19T06:00:30;15.67;75.26
52656;SHT85;35474;51.032;6.998;2023-09-19T06:02:58;15.56;75.22
52656;SHT85;35474;51.032;6.998;2023-09-19T06:05:26;15.61;75.12
52656;SHT85;35474;51.032;6.998;2023-09-19T06:07:54;15.65;75.16
52656;SHT85;35474;51.032;6.998;2023-09-19T06:10:21;15.69;75.31
52656;SHT85;35474;51.032;6.998;2023-09-19T06:12:49;15.73;74.98
52656;SHT85;35474;51.032;6.998;2023-09-19T06:15:16;15.66;75.01
52656;SHT85;35474;51.032;6.998;2023-09-19T06:17:49;15.67;75.13
52656;SHT85;35474;51.032;6.998;2023-09-19T06:20:17;15.66;75.29
52656;SHT85;35474;51.032;6.998;2023-09-19T06:22:46;15.77;75.07
52656;SHT85;35474;51.032;6.998;2023-09-19T06:25:13;15.87;74.89
52656;SHT85;35474;51.032;6.998;2023-09-19T06:27:50;15.85;74.86
52656;SHT85;35474;51.032;6.998;2023-09-19T06:32:34;15.91;74.90
52656;SHT85;35474;51.032;6.998;2023-09-19T06:35:02;15.91;74.90
52656;SHT85;35474;51.032;6.998;2023-09-19T06:37:33;15.90;75.06
52656;SHT85;35474;51.032;6.998;2023-09-19T06:40:07;15.83;75.20
52656;SHT85;35474;51.032;6.998;2023-09-19T06:42:35;15.82;75.11
52656;SHT85;35474;51.032;6.998;2023-09-19T06:45:04;15.80;74.85
52656;SHT85;35474;51.032;6.998;2023-09-19T06:47:32;15.79;75.12
52656;SHT85;35474;51.032;6.998;2023-09-19T06:49:59;15.80;74.95
52656;SHT85;35474;51.032;6.998;2023-09-19T06:52:28;15.90;74.67
52656;SHT85;35474;51.032;6.998;2023-09-19T06:54:55;15.82;74.50
52656;SHT85;35474;51.032;6.998;2023-09-19T06:57:22;15.91;74.66
52656;SHT85;35474;51.032;6.998;2023-09-19T06:59:49;15.90;74.37
52656;SHT85;35474;51.032;6.998;2023-09-19T07:02:16;15.80;74.29
52656;SHT85;35474;51.032;6.998;2023-09-19T07:04:43;15.99;74.01
52656;SHT85;35474;51.032;6.998;2023-09-19T07:07:10;15.90;74.23
52656;SHT85;35474;51.032;6.998;2023-09-19T07:09:39;15.96;74.29
52656;SHT85;35474;51.032;6.998;2023-09-19T07:12:06;15.97;74.27
52656;SHT85;35474;51.032;6.998;2023-09-19T07:14:33;15.91;74.12
52656;SHT85;35474;51.032;6.998;2023-09-19T07:16:59;15.96;74.23
52656;SHT85;35474;51.032;6.998;2023-09-19T07:19:26;16.04;74.10
52656;SHT85;35474;51.032;6.998;2023-09-19T07:21:58;16.09;74.11
52656;SHT85;35474;51.032;6.998;2023-09-19T07:24:25;16.11;73.99
52656;SHT85;35474;51.032;6.998;2023-09-19T07:26:54;16.10;74.08
52656;SHT85;35474;51.032;6.998;2023-09-19T07:29:21;16.10;73.97
52656;SHT85;35474;51.032;6.998;2023-09-19T07:31:48;16.13;74.02
52656;SHT85;35474;51.032;6.998;2023-09-19T07:34:16;16.31;73.48
52656;SHT85;35474;51.032;6.998;2023-09-19T07:36:43;16.45;73.12
52656;SHT85;35474;51.032;6.998;2023-09-19T07:39:10;16.31;73.23
52656;SHT85;35474;51.032;6.998;2023-09-19T07:41:48;16.44;72.77
52656;SHT85;35474;51.032;6.998;2023-09-19T07:44:16;16.72;72.46
52656;SHT85;35474;51.032;6.998;2023-09-19T07:46:43;16.90;72.21
52656;SHT85;35474;51.032;6.998;2023-09-19T07:49:10;16.78;71.94
52656;SHT85;35474;51.032;6.998;2023-09-19T07:51:37;16.88;71.76
52656;SHT85;35474;51.032;6.998;2023-09-19T07:54:05;16.76;71.97
52656;SHT85;35474;51.032;6.998;2023-09-19T07:56:31;16.78;71.24
52656;SHT85;35474;51.032;6.998;2023-09-19T07:58:58;16.92;71.22
52656;SHT85;35474;51.032;6.998;2023-09-19T08:01:25;16.95;70.33
52656;SHT85;35474;51.032;6.998;2023-09-19T08:03:54;17.06;71.09
52656;SHT85;35474;51.032;6.998;2023-09-19T08:06:21;17.17;70.19
52656;SHT85;35474;51.032;6.998;2023-09-19T08:08:50;17.27;70.73
52656;SHT85;35474;51.032;6.998;2023-09-19T08:11:20;17.27;69.82
52656;SHT85;35474;51.032;6.998;2023-09-19T08:13:47;17.23;69.24
52656;SHT85;35474;51.032;6.998;2023-09-19T08:16:18;17.57;69.25
52656;SHT85;35474;51.032;6.998;2023-09-19T08:18:49;17.95;68.13
52656;SHT85;35474;51.032;6.998;2023-09-19T08:21:22;17.62;68.91
52656;SHT85;35474;51.032;6.998;2023-09-19T08:23:50;17.51;69.14
52656;SHT85;35474;51.032;6.998;2023-09-19T08:26:17;17.85;67.89
52656;SHT85;35474;51.032;6.998;2023-09-19T08:28:43;17.68;68.28
52656;SHT85;35474;51.032;6.998;2023-09-19T08:31:10;17.59;68.19
52656;SHT85;35474;51.032;6.998;2023-09-19T08:33:37;17.64;68.72
52656;SHT85;35474;51.032;6.998;2023-09-19T08:36:05;17.88;68.24
52656;SHT85;35474;51.032;6.998;2023-09-19T08:38:34;17.95;67.98
52656;SHT85;35474;51.032;6.998;2023-09-19T08:41:04;18.01;67.81
52656;SHT85;35474;51.032;6.998;2023-09-19T08:43:33;17.79;68.29
52656;SHT85;35474;51.032;6.998;2023-09-19T08:48:46;17.62;67.79
52656;SHT85;35474;51.032;6.998;2023-09-19T08:51:27;17.71;67.56
52656;SHT85;35474;51.032;6.998;2023-09-19T08:54:06;17.79;65.75
52656;SHT85;35474;51.032;6.998;2023-09-19T08:56:33;17.88;65.98
52656;SHT85;35474;51.032;6.998;2023-09-19T08:59:02;18.01;65.44
52656;SHT85;35474;51.032;6.998;2023-09-19T09:01:31;18.15;65.25
52656;SHT85;35474;51.032;6.998;2023-09-19T09:03:59;18.32;63.83
52656;SHT85;35474;51.032;6.998;2023-09-19T09:06:27;18.61;63.75
52656;SHT85;35474;51.032;6.998;2023-09-19T09:08:55;18.64;63.78
52656;SHT85;35474;51.032;6.998;2023-09-19T09:11:22;18.57;63.18
52656;SHT85;35474;51.032;6.998;2023-09-19T09:13:54;18.40;61.78
52656;SHT85;35474;51.032;6.998;2023-09-19T09:16:21;18.67;61.26
52656;SHT85;35474;51.032;6.998;2023-09-19T09:18:49;18.41;62.08
52656;SHT85;35474;51.032;6.998;2023-09-19T09:21:21;18.88;61.26
52656;SHT85;35474;51.032;6.998;2023-09-19T09:23:48;19.02;59.72
52656;SHT85;35474;51.032;6.998;2023-09-19T09:26:16;18.57;60.19
52656;SHT85;35474;51.032;6.998;2023-09-19T09:28:46;18.98;59.61
52656;SHT85;35474;51.032;6.998;2023-09-19T09:31:24;19.49;59.11
52656;SHT85;35474;51.032;6.998;2023-09-19T09:33:55;18.99;59.64
52656;SHT85;35474;51.032;6.998;2023-09-19T09:36:38;19.34;58.51
52656;SHT85;35474;51.032;6.998;2023-09-19T09:39:07;20.20;56.31
52656;SHT85;35474;51.032;6.998;2023-09-19T09:41:51;20.18;56.49
52656;SHT85;35474;51.032;6.998;2023-09-19T09:44:18;19.87;56.49
52656;SHT85;35474;51.032;6.998;2023-09-19T09:46:46;19.73;55.11
52656;SHT85;35474;51.032;6.998;2023-09-19T09:49:23;19.47;56.26
52656;SHT85;35474;51.032;6.998;2023-09-19T09:52:01;19.53;55.77
52656;SHT85;35474;51.032;6.998;2023-09-19T09:54:58;19.22;56.88
52656;SHT85;35474;51.032;6.998;2023-09-19T09:57:32;18.91;57.81
52656;SHT85;35474;51.032;6.998;2023-09-19T10:00:00;19.38;57.61
52656;SHT85;35474;51.032;6.998;2023-09-19T10:02:40;19.98;56.48
52656;SHT85;35474;51.032;6.998;2023-09-19T10:05:17;19.94;56.16
52656;SHT85;35474;51.032;6.998;2023-09-19T10:08:11;20.96;53.85
52656;SHT85;35474;51.032;6.998;2023-09-19T10:10:39;21.02;53.72
52656;SHT85;35474;51.032;6.998;2023-09-19T10:13:13;19.93;54.26
52656;SHT85;35474;51.032;6.998;2023-09-19T10:15:42;20.01;54.71
52656;SHT85;35474;51.032;6.998;2023-09-19T10:18:15;19.60;54.78
52656;SHT85;35474;51.032;6.998;2023-09-19T10:20:53;19.32;56.20
52656;SHT85;35474;51.032;6.998;2023-09-19T10:23:21;20.24;54.48
52656;SHT85;35474;51.032;6.998;2023-09-19T10:25:50;19.73;55.27
52656;SHT85;35474;51.032;6.998;2023-09-19T10:28:17;19.39;56.21
52656;SHT85;35474;51.032;6.998;2023-09-19T10:30:50;19.59;55.26
52656;SHT85;35474;51.032;6.998;2023-09-19T10:33:24;20.56;53.37
52656;SHT85;35474;51.032;6.998;2023-09-19T10:35:58;20.17;53.70
52656;SHT85;35474;51.032;6.998;2023-09-19T10:38:27;20.25;53.89
52656;SHT85;35474;51.032;6.998;2023-09-19T10:40:56;20.48;53.70
52656;SHT85;35474;51.032;6.998;2023-09-19T10:43:31;20.39;54.31
52656;SHT85;35474;51.032;6.998;2023-09-19T10:46:02;20.72;53.02
52656;SHT85;35474;51.032;6.998;2023-09-19T10:48:33;20.15;54.27
52656;SHT85;35474;51.032;6.998;2023-09-19T10:53:34;20.36;54.11
52656;SHT85;35474;51.032;6.998;2023-09-19T10:56:15;20.14;54.24
52656;SHT85;35474;51.032;6.998;2023-09-19T10:58:45;20.28;54.71
52656;SHT85;35474;51.032;6.998;2023-09-19T11:01:12;20.45;54.21
52656;SHT85;35474;51.032;6.998;2023-09-19T11:03:41;20.73;52.91
52656;SHT85;35474;51.032;6.998;2023-09-19T11:06:13;20.99;53.02
52656;SHT85;35474;51.032;6.998;2023-09-19T11:17:51;20.79;52.73
52656;SHT85;35474;51.032;6.998;2023-09-19T11:30:45;20.96;52.30
52656;SHT85;35474;51.032;6.998;2023-09-19T11:43:48;21.92;50.43
52656;SHT85;35474;51.032;6.998;2023-09-19T11:46:21;21.96;51.44
52656;SHT85;35474;51.032;6.998;2023-09-19T11:48:48;21.09;51.37
52656;SHT85;35474;51.032;6.998;2023-09-19T11:51:20;20.93;51.18
52656;SHT85;35474;51.032;6.998;2023-09-19T11:53:59;21.37;49.48
52656;SHT85;35474;51.032;6.998;2023-09-19T11:56:26;21.35;50.37
52656;SHT85;35474;51.032;6.998;2023-09-19T11:58:55;21.07;50.68
52656;SHT85;35474;51.032;6.998;2023-09-19T12:01:24;20.84;52.42
52656;SHT85;35474;51.032;6.998;2023-09-19T12:03:52;21.71;50.07
52656;SHT85;35474;51.032;6.998;2023-09-19T12:06:21;22.09;50.43
52656;SHT85;35474;51.032;6.998;2023-09-19T12:08:49;22.41;49.79
52656;SHT85;35474;51.032;6.998;2023-09-19T12:11:17;22.30;49.33
52656;SHT85;35474;51.032;6.998;2023-09-19T12:13:45;22.47;47.93
52656;SHT85;35474;51.032;6.998;2023-09-19T12:16:15;21.77;48.82
52656;SHT85;35474;51.032;6.998;2023-09-19T12:18:43;21.34;49.34
52656;SHT85;35474;51.032;6.998;2023-09-19T12:21:23;21.86;49.11
52656;SHT85;35474;51.032;6.998;2023-09-19T12:26:52;22.59;47.10
52656;SHT85;35474;51.032;6.998;2023-09-19T12:29:19;22.67;45.52
52656;SHT85;35474;51.032;6.998;2023-09-19T12:31:47;22.47;46.14
52656;SHT85;35474;51.032;6.998;2023-09-19T12:34:20;22.54;46.20
52656;SHT85;35474;51.032;6.998;2023-09-19T12:39:40;22.00;45.09
52656;SHT85;35474;51.032;6.998;2023-09-19T12:42:09;22.05;46.49
52656;SHT85;35474;51.032;6.998;2023-09-19T12:44:37;22.39;45.75
52656;SHT85;35474;51.032;6.998;2023-09-19T12:47:08;22.15;47.17
52656;SHT85;35474;51.032;6.998;2023-09-19T12:50:08;22.32;46.67
52656;SHT85;35474;51.032;6.998;2023-09-19T12:52:40;22.13;46.67
52656;SHT85;35474;51.032;6.998;2023-09-19T12:55:19;21.78;47.33
52656;SHT85;35474;51.032;6.998;2023-09-19T12:58:11;21.95;47.21
52656;SHT85;35474;51.032;6.998;2023-09-19T13:00:39;21.81;47.62
52656;SHT85;35474;51.032;6.998;2023-09-19T13:03:11;22.18;47.31
52656;SHT85;35474;51.032;6.998;2023-09-19T13:05:56;22.44;47.42
52656;SHT85;35474;51.032;6.998;2023-09-19T13:08:27;22.88;46.09
52656;SHT85;35474;51.032;6.998;2023-09-19T13:14:15;22.60;46.58
52656;SHT85;35474;51.032;6.998;2023-09-19T13:17:04;22.90;45.53
52656;SHT85;35474;51.032;6.998;2023-09-19T13:19:44;22.29;46.94
52656;SHT85;35474;51.032;6.998;2023-09-19T13:22:41;22.54;46.56
52656;SHT85;35474;51.032;6.998;2023-09-19T13:25:11;23.12;45.55
52656;SHT85;35474;51.032;6.998;2023-09-19T13:27:42;22.32;46.04
52656;SHT85;35474;51.032;6.998;2023-09-19T13:30:14;22.94;45.57
52656;SHT85;35474;51.032;6.998;2023-09-19T13:32:41;22.60;45.97
52656;SHT85;35474;51.032;6.998;2023-09-19T13:35:09;22.26;46.53
52656;SHT85;35474;51.032;6.998;2023-09-19T13:37:38;22.29;47.49
52656;SHT85;35474;51.032;6.998;2023-09-19T13:40:08;22.03;47.45
52656;SHT85;35474;51.032;6.998;2023-09-19T13:42:36;21.93;48.01
52656;SHT85;35474;51.032;6.998;2023-09-19T13:45:03;21.81;48.36
52656;SHT85;35474;51.032;6.998;2023-09-19T13:47:31;22.19;47.54
52656;SHT85;35474;51.032;6.998;2023-09-19T13:49:59;22.32;47.74
52656;SHT85;35474;51.032;6.998;2023-09-19T13:52:27;21.98;48.06
52656;SHT85;35474;51.032;6.998;2023-09-19T13:54:57;21.61;48.87
52656;SHT85;35474;51.032;6.998;2023-09-19T13:57:24;22.02;48.78
52656;SHT85;35474;51.032;6.998;2023-09-19T13:59:52;21.83;49.23
52656;SHT85;35474;51.032;6.998;2023-09-19T14:02:21;22.05;49.13
52656;SHT85;35474;51.032;6.998;2023-09-19T14:04:51;22.20;49.23
52656;SHT85;35474;51.032;6.998;2023-09-19T14:07:19;22.16;48.66
52656;SHT85;35474;51.032;6.998;2023-09-19T14:09:46;21.67;50.09
52656;SHT85;35474;51.032;6.998;2023-09-19T14:12:13;21.60;50.57
52656;SHT85;35474;51.032;6.998;2023-09-19T14:14:40;21.09;50.83
52656;SHT85;35474;51.032;6.998;2023-09-19T14:17:08;21.32;50.81
52656;SHT85;35474;51.032;6.998;2023-09-19T14:19:38;21.37;51.17
52656;SHT85;35474;51.032;6.998;2023-09-19T14:22:13;21.21;51.01
52656;SHT85;35474;51.032;6.998;2023-09-19T14:24:40;21.58;50.80
52656;SHT85;35474;51.032;6.998;2023-09-19T14:27:07;21.23;51.30
52656;SHT85;35474;51.032;6.998;2023-09-19T14:29:35;21.03;51.70
52656;SHT85;35474;51.032;6.998;2023-09-19T14:32:03;21.09;52.09
52656;SHT85;35474;51.032;6.998;2023-09-19T14:34:30;21.07;51.82
52656;SHT85;35474;51.032;6.998;2023-09-19T14:36:58;20.99;51.91
52656;SHT85;35474;51.032;6.998;2023-09-19T14:39:25;21.00;52.70
52656;SHT85;35474;51.032;6.998;2023-09-19T14:41:53;21.17;52.76
52656;SHT85;35474;51.032;6.998;2023-09-19T14:44:20;21.04;53.13
52656;SHT85;35474;51.032;6.998;2023-09-19T14:46:47;21.03;52.85
52656;SHT85;35474;51.032;6.998;2023-09-19T14:49:14;20.96;53.02
52656;SHT85;35474;51.032;6.998;2023-09-19T14:51:43;20.97;52.88
52656;SHT85;35474;51.032;6.998;2023-09-19T14:54:14;21.03;52.78
52656;SHT85;35474;51.032;6.998;2023-09-19T14:56:45;21.21;52.48
52656;SHT85;35474;51.032;6.998;2023-09-19T14:59:11;21.10;53.13
52656;SHT85;35474;51.032;6.998;2023-09-19T15:01:39;21.40;53.00
52656;SHT85;35474;51.032;6.998;2023-09-19T15:04:06;21.55;52.64
52656;SHT85;35474;51.032;6.998;2023-09-19T15:06:32;21.38;52.43
52656;SHT85;35474;51.032;6.998;2023-09-19T15:09:00;21.27;52.49
52656;SHT85;35474;51.032;6.998;2023-09-19T15:11:27;21.16;53.20
52656;SHT85;35474;51.032;6.998;2023-09-19T15:13:54;21.06;53.10
52656;SHT85;35474;51.032;6.998;2023-09-19T15:16:21;21.02;53.36
52656;SHT85;35474;51.032;6.998;2023-09-19T15:18:48;20.94;53.47
52656;SHT85;35474;51.032;6.998;2023-09-19T15:21:15;20.99;53.43
52656;SHT85;35474;51.032;6.998;2023-09-19T15:23:42;20.86;53.66
52656;SHT85;35474;51.032;6.998;2023-09-19T15:26:11;20.72;53.47
52656;SHT85;35474;51.032;6.998;2023-09-19T15:28:38;20.72;53.72
52656;SHT85;35474;51.032;6.998;2023-09-19T15:31:10;20.65;53.74
52656;SHT85;35474;51.032;6.998;2023-09-19T15:33:38;20.66;53.83
52656;SHT85;35474;51.032;6.998;2023-09-19T15:36:09;20.77;53.90
52656;SHT85;35474;51.032;6.998;2023-09-19T15:41:26;20.73;53.87
52656;SHT85;35474;51.032;6.998;2023-09-19T15:43:54;20.87;54.10
52656;SHT85;35474;51.032;6.998;2023-09-19T15:46:21;20.73;54.12
52656;SHT85;35474;51.032;6.998;2023-09-19T15:48:48;20.71;53.79
52656;SHT85;35474;51.032;6.998;2023-09-19T15:51:14;20.76;53.89
52656;SHT85;35474;51.032;6.998;2023-09-19T15:53:43;20.66;53.89
52656;SHT85;35474;51.032;6.998;2023-09-19T15:56:11;20.59;54.10
52656;SHT85;35474;51.032;6.998;2023-09-19T15:58:39;20.65;54.28
52656;SHT85;35474;51.032;6.998;2023-09-19T16:01:08;20.72;54.11
52656;SHT85;35474;51.032;6.998;2023-09-19T16:03:38;20.68;54.38
52656;SHT85;35474;51.032;6.998;2023-09-19T16:06:12;20.69;54.30
52656;SHT85;35474;51.032;6.998;2023-09-19T16:08:50;20.63;54.56
52656;SHT85;35474;51.032;6.998;2023-09-19T16:11:18;20.62;54.51
52656;SHT85;35474;51.032;6.998;2023-09-19T16:13:47;20.58;54.63
52656;SHT85;35474;51.032;6.998;2023-09-19T16:16:15;20.68;54.90
52656;SHT85;35474;51.032;6.998;2023-09-19T16:18:46;20.69;54.70
52656;SHT85;35474;51.032;6.998;2023-09-19T16:21:16;20.75;54.46
52656;SHT85;35474;51.032;6.998;2023-09-19T16:23:45;20.63;53.93
52656;SHT85;35474;51.032;6.998;2023-09-19T16:26:12;20.65;54.18
52656;SHT85;35474;51.032;6.998;2023-09-19T16:28:40;20.75;54.39
52656;SHT85;35474;51.032;6.998;2023-09-19T16:31:08;20.63;54.44
52656;SHT85;35474;51.032;6.998;2023-09-19T16:33:36;20.58;54.48
52656;SHT85;35474;51.032;6.998;2023-09-19T16:36:10;20.65;54.65
52656;SHT85;35474;51.032;6.998;2023-09-19T16:38:38;20.56;55.16
52656;SHT85;35474;51.032;6.998;2023-09-19T16:41:06;20.53;55.39
52656;SHT85;35474;51.032;6.998;2023-09-19T16:43:34;20.55;54.82
52656;SHT85;35474;51.032;6.998;2023-09-19T16:46:05;20.61;54.95
52656;SHT85;35474;51.032;6.998;2023-09-19T16:48:35;20.56;55.14
52656;SHT85;35474;51.032;6.998;2023-09-19T16:51:21;20.52;55.36